sensor_id;sensor_type;location;lat;lon;timestamp;pressure;altitude;pressure_sealevel;temperature;humidity
79534;BME280;68982;52.160;6.736;2023-04-15T00:00:27;100692.16;;;7.87;63.63
79534;BME280;68982;52.160;6.736;2023-04-15T00:02:53;100689.13;;;7.82;63.62
79534;BME280;68982;52.160;6.736;2023-04-15T00:05:19;100687.28;;;7.82;64.04
79534;BME280;68982;52.160;6.736;2023-04-15T00:07:45;100691.97;;;7.88;62.64
79534;BME280;68982;52.160;6.736;2023-04-15T00:10:11;100694.34;;;7.83;63.77
79534;BME280;68982;52.160;6.736;2023-04-15T00:12:36;100683.97;;;7.80;64.10
79534;BME280;68982;52.160;6.736;2023-04-15T00:15:02;100674.75;;;7.66;64.64
79534;BME280;68982;52.160;6.736;2023-04-15T00:17:28;100687.78;;;7.86;63.19
79534;BME280;68982;52.160;6.736;2023-04-15T00:19:53;100676.75;;;7.73;64.72
79534;BME280;68982;52.160;6.736;2023-04-15T00:22:19;100685.16;;;7.70;64.95
79534;BME280;68982;52.160;6.736;2023-04-15T00:24:44;100686.53;;;7.65;64.99
79534;BME280;68982;52.160;6.736;2023-04-15T00:27:10;100691.38;;;7.62;65.67
79534;BME280;68982;52.160;6.736;2023-04-15T00:29:35;100686.69;;;7.56;66.32
79534;BME280;68982;52.160;6.736;2023-04-15T00:32:01;100687.41;;;7.50;66.62
79534;BME280;68982;52.160;6.736;2023-04-15T00:34:27;100679.53;;;7.48;66.67
79534;BME280;68982;52.160;6.736;2023-04-15T00:36:53;100686.38;;;7.51;66.52
79534;BME280;68982;52.160;6.736;2023-04-15T00:39:18;100687.06;;;7.44;66.27
79534;BME280;68982;52.160;6.736;2023-04-15T00:41:44;100684.22;;;7.38;66.72
79534;BME280;68982;52.160;6.736;2023-04-15T00:44:10;100678.56;;;7.33;67.27
79534;BME280;68982;52.160;6.736;2023-04-15T00:46:36;100685.56;;;7.42;67.03
79534;BME280;68982;52.160;6.736;2023-04-15T00:49:06;100692.28;;;7.38;68.04
79534;BME280;68982;52.160;6.736;2023-04-15T00:51:32;100694.81;;;7.31;67.80
79534;BME280;68982;52.160;6.736;2023-04-15T00:54:01;100686.81;;;7.23;67.82
79534;BME280;68982;52.160;6.736;2023-04-15T00:56:28;100693.34;;;7.20;68.50
79534;BME280;68982;52.160;6.736;2023-04-15T00:58:53;100692.16;;;7.23;67.57
79534;BME280;68982;52.160;6.736;2023-04-15T01:01:23;100692.31;;;7.21;69.11
79534;BME280;68982;52.160;6.736;2023-04-15T01:03:50;100692.16;;;7.15;68.74
79534;BME280;68982;52.160;6.736;2023-04-15T01:06:16;100690.16;;;7.25;68.78
79534;BME280;68982;52.160;6.736;2023-04-15T01:08:42;100692.84;;;7.25;68.94
79534;BME280;68982;52.160;6.736;2023-04-15T01:11:09;100687.47;;;7.25;68.76
79534;BME280;68982;52.160;6.736;2023-04-15T01:13:35;100691.50;;;7.13;69.35
79534;BME280;68982;52.160;6.736;2023-04-15T01:16:01;100693.19;;;7.14;70.16
79534;BME280;68982;52.160;6.736;2023-04-15T01:18:27;100700.72;;;7.10;70.27
79534;BME280;68982;52.160;6.736;2023-04-15T01:20:53;100699.22;;;7.08;70.00
79534;BME280;68982;52.160;6.736;2023-04-15T01:23:20;100698.53;;;6.97;70.21
79534;BME280;68982;52.160;6.736;2023-04-15T01:25:46;100698.22;;;7.00;70.30
79534;BME280;68982;52.160;6.736;2023-04-15T01:28:13;100700.91;;;6.92;70.87
79534;BME280;68982;52.160;6.736;2023-04-15T01:30:38;100705.75;;;6.89;70.97
79534;BME280;68982;52.160;6.736;2023-04-15T01:33:04;100696.72;;;6.90;70.21
79534;BME280;68982;52.160;6.736;2023-04-15T01:35:29;100701.88;;;6.91;70.51
79534;BME280;68982;52.160;6.736;2023-04-15T01:38:03;100697.53;;;6.82;70.65
79534;BME280;68982;52.160;6.736;2023-04-15T01:40:29;100704.91;;;6.80;71.48
79534;BME280;68982;52.160;6.736;2023-04-15T01:42:55;100705.56;;;6.82;70.91
79534;BME280;68982;52.160;6.736;2023-04-15T01:45:20;100706.25;;;6.76;71.42
79534;BME280;68982;52.160;6.736;2023-04-15T01:47:45;100700.56;;;6.71;72.25
79534;BME280;68982;52.160;6.736;2023-04-15T01:50:11;100710.09;;;6.65;72.67
79534;BME280;68982;52.160;6.736;2023-04-15T01:52:37;100702.75;;;6.67;72.15
79534;BME280;68982;52.160;6.736;2023-04-15T01:55:03;100703.72;;;6.66;71.93
79534;BME280;68982;52.160;6.736;2023-04-15T01:57:28;100708.59;;;6.71;71.92
79534;BME280;68982;52.160;6.736;2023-04-15T01:59:53;100705.25;;;6.69;72.55
79534;BME280;68982;52.160;6.736;2023-04-15T02:02:19;100707.91;;;6.69;72.24
79534;BME280;68982;52.160;6.736;2023-04-15T02:04:44;100699.53;;;6.63;72.15
79534;BME280;68982;52.160;6.736;2023-04-15T02:07:09;100705.41;;;6.59;72.37
79534;BME280;68982;52.160;6.736;2023-04-15T02:09:35;100711.94;;;6.64;72.62
79534;BME280;68982;52.160;6.736;2023-04-15T02:12:00;100711.44;;;6.61;72.20
79534;BME280;68982;52.160;6.736;2023-04-15T02:14:25;100718.66;;;6.60;71.98
79534;BME280;68982;52.160;6.736;2023-04-15T02:16:51;100715.94;;;6.52;72.57
79534;BME280;68982;52.160;6.736;2023-04-15T02:19:16;100704.03;;;6.47;72.78
79534;BME280;68982;52.160;6.736;2023-04-15T02:21:42;100710.41;;;6.46;73.09
79534;BME280;68982;52.160;6.736;2023-04-15T02:24:07;100713.25;;;6.44;72.75
79534;BME280;68982;52.160;6.736;2023-04-15T02:26:33;100708.41;;;6.48;72.63
79534;BME280;68982;52.160;6.736;2023-04-15T02:28:58;100724.16;;;6.42;72.47
79534;BME280;68982;52.160;6.736;2023-04-15T02:31:24;100719.25;;;6.38;73.12
79534;BME280;68982;52.160;6.736;2023-04-15T02:33:50;100735.81;;;6.33;73.47
79534;BME280;68982;52.160;6.736;2023-04-15T02:36:15;100719.41;;;6.28;74.34
79534;BME280;68982;52.160;6.736;2023-04-15T02:38:41;100729.31;;;6.36;73.72
79534;BME280;68982;52.160;6.736;2023-04-15T02:41:08;100737.16;;;6.29;74.16
79534;BME280;68982;52.160;6.736;2023-04-15T02:43:34;100732.94;;;6.27;74.01
79534;BME280;68982;52.160;6.736;2023-04-15T02:45:59;100738.63;;;6.23;74.01
79534;BME280;68982;52.160;6.736;2023-04-15T02:48:25;100735.78;;;6.17;73.86
79534;BME280;68982;52.160;6.736;2023-04-15T02:50:51;100745.81;;;6.15;74.64
79534;BME280;68982;52.160;6.736;2023-04-15T02:53:16;100751.13;;;6.07;75.04
79534;BME280;68982;52.160;6.736;2023-04-15T02:55:41;100749.09;;;6.00;75.06
79534;BME280;68982;52.160;6.736;2023-04-15T02:58:07;100739.38;;;5.99;74.90
79534;BME280;68982;52.160;6.736;2023-04-15T03:00:32;100745.91;;;5.97;74.91
79534;BME280;68982;52.160;6.736;2023-04-15T03:03:03;100742.53;;;5.95;75.30
79534;BME280;68982;52.160;6.736;2023-04-15T03:05:29;100746.50;;;5.82;75.81
79534;BME280;68982;52.160;6.736;2023-04-15T03:07:55;100752.66;;;5.83;75.80
79534;BME280;68982;52.160;6.736;2023-04-15T03:10:20;100757.97;;;5.75;75.91
79534;BME280;68982;52.160;6.736;2023-04-15T03:12:46;100765.78;;;5.68;76.40
79534;BME280;68982;52.160;6.736;2023-04-15T03:15:11;100769.97;;;5.71;76.34
79534;BME280;68982;52.160;6.736;2023-04-15T03:17:37;100766.13;;;5.65;76.71
79534;BME280;68982;52.160;6.736;2023-04-15T03:20:03;100768.63;;;5.67;76.34
79534;BME280;68982;52.160;6.736;2023-04-15T03:22:30;100761.94;;;5.63;76.44
79534;BME280;68982;52.160;6.736;2023-04-15T03:24:55;100766.06;;;5.57;76.71
79534;BME280;68982;52.160;6.736;2023-04-15T03:27:21;100770.19;;;5.51;77.18
79534;BME280;68982;52.160;6.736;2023-04-15T03:29:46;100771.34;;;5.49;77.20
79534;BME280;68982;52.160;6.736;2023-04-15T03:32:12;100772.91;;;5.59;77.15
79534;BME280;68982;52.160;6.736;2023-04-15T03:34:39;100768.31;;;5.44;77.68
79534;BME280;68982;52.160;6.736;2023-04-15T03:37:05;100777.13;;;5.36;77.90
79534;BME280;68982;52.160;6.736;2023-04-15T03:39:31;100767.97;;;5.47;77.71
79534;BME280;68982;52.160;6.736;2023-04-15T03:41:56;100775.25;;;5.54;77.39
79534;BME280;68982;52.160;6.736;2023-04-15T03:44:22;100776.41;;;5.52;77.63
79534;BME280;68982;52.160;6.736;2023-04-15T03:46:47;100789.56;;;5.45;78.13
79534;BME280;68982;52.160;6.736;2023-04-15T03:49:13;100779.63;;;5.37;78.53
79534;BME280;68982;52.160;6.736;2023-04-15T03:51:38;100784.50;;;5.42;78.59
79534;BME280;68982;52.160;6.736;2023-04-15T03:54:03;100789.63;;;5.35;78.95
79534;BME280;68982;52.160;6.736;2023-04-15T03:56:29;100782.69;;;5.43;78.87
79534;BME280;68982;52.160;6.736;2023-04-15T03:58:54;100791.00;;;5.39;78.76
79534;BME280;68982;52.160;6.736;2023-04-15T04:01:20;100796.91;;;5.43;78.86
79534;BME280;68982;52.160;6.736;2023-04-15T04:03:45;100794.50;;;5.40;78.76
79534;BME280;68982;52.160;6.736;2023-04-15T04:06:11;100800.19;;;5.37;79.09
79534;BME280;68982;52.160;6.736;2023-04-15T04:08:36;100803.19;;;5.34;79.32
79534;BME280;68982;52.160;6.736;2023-04-15T04:11:02;100802.63;;;5.30;79.67
79534;BME280;68982;52.160;6.736;2023-04-15T04:13:27;100810.97;;;5.27;79.46
79534;BME280;68982;52.160;6.736;2023-04-15T04:15:53;100816.16;;;5.29;79.69
79534;BME280;68982;52.160;6.736;2023-04-15T04:18:18;100821.22;;;5.32;80.32
79534;BME280;68982;52.160;6.736;2023-04-15T04:20:43;100815.63;;;5.25;80.12
79534;BME280;68982;52.160;6.736;2023-04-15T04:23:09;100817.31;;;5.26;80.13
79534;BME280;68982;52.160;6.736;2023-04-15T04:25:34;100819.75;;;5.19;80.59
79534;BME280;68982;52.160;6.736;2023-04-15T04:27:59;100818.38;;;5.15;80.85
79534;BME280;68982;52.160;6.736;2023-04-15T04:30:25;100815.88;;;5.14;80.66
79534;BME280;68982;52.160;6.736;2023-04-15T04:32:50;100827.25;;;5.16;80.64
79534;BME280;68982;52.160;6.736;2023-04-15T04:35:16;100819.84;;;5.10;80.54
79534;BME280;68982;52.160;6.736;2023-04-15T04:37:41;100828.31;;;5.05;81.08
79534;BME280;68982;52.160;6.736;2023-04-15T04:40:07;100830.00;;;5.06;80.76
79534;BME280;68982;52.160;6.736;2023-04-15T04:42:33;100830.53;;;5.10;80.68
79534;BME280;68982;52.160;6.736;2023-04-15T04:44:59;100830.53;;;5.10;80.96
79534;BME280;68982;52.160;6.736;2023-04-15T04:47:24;100834.50;;;5.06;81.21
79534;BME280;68982;52.160;6.736;2023-04-15T04:49:49;100821.69;;;4.91;81.30
79534;BME280;68982;52.160;6.736;2023-04-15T04:52:15;100828.09;;;4.98;80.84
79534;BME280;68982;52.160;6.736;2023-04-15T04:54:40;100831.91;;;5.14;80.64
79534;BME280;68982;52.160;6.736;2023-04-15T04:57:06;100838.56;;;5.10;80.82
79534;BME280;68982;52.160;6.736;2023-04-15T04:59:32;100838.00;;;5.06;80.78
79534;BME280;68982;52.160;6.736;2023-04-15T05:01:57;100838.09;;;5.14;80.60
79534;BME280;68982;52.160;6.736;2023-04-15T05:04:23;100840.44;;;4.99;81.41
79534;BME280;68982;52.160;6.736;2023-04-15T05:06:48;100836.56;;;4.94;82.04
79534;BME280;68982;52.160;6.736;2023-04-15T05:09:13;100834.19;;;4.91;81.77
79534;BME280;68982;52.160;6.736;2023-04-15T05:11:39;100845.09;;;4.97;81.54
79534;BME280;68982;52.160;6.736;2023-04-15T05:14:04;100842.19;;;4.91;82.04
79534;BME280;68982;52.160;6.736;2023-04-15T05:16:29;100853.91;;;4.90;82.03
79534;BME280;68982;52.160;6.736;2023-04-15T05:18:55;100856.34;;;4.83;82.50
79534;BME280;68982;52.160;6.736;2023-04-15T05:21:20;100865.66;;;4.97;81.78
79534;BME280;68982;52.160;6.736;2023-04-15T05:23:46;100867.50;;;4.96;81.85
79534;BME280;68982;52.160;6.736;2023-04-15T05:26:11;100862.44;;;4.93;82.03
79534;BME280;68982;52.160;6.736;2023-04-15T05:28:37;100866.81;;;4.94;82.24
79534;BME280;68982;52.160;6.736;2023-04-15T05:31:02;100870.03;;;4.98;82.00
79534;BME280;68982;52.160;6.736;2023-04-15T05:33:28;100874.22;;;5.01;81.70
79534;BME280;68982;52.160;6.736;2023-04-15T05:35:53;100867.53;;;4.87;82.24
79534;BME280;68982;52.160;6.736;2023-04-15T05:38:18;100874.34;;;4.81;82.50
79534;BME280;68982;52.160;6.736;2023-04-15T05:40:44;100877.09;;;4.89;82.40
79534;BME280;68982;52.160;6.736;2023-04-15T05:43:09;100872.16;;;4.94;82.21
79534;BME280;68982;52.160;6.736;2023-04-15T05:45:34;100875.50;;;4.96;81.88
79534;BME280;68982;52.160;6.736;2023-04-15T05:48:00;100880.53;;;4.99;81.72
79534;BME280;68982;52.160;6.736;2023-04-15T05:50:25;100895.59;;;5.01;82.02
79534;BME280;68982;52.160;6.736;2023-04-15T05:52:51;100882.13;;;4.92;82.18
79534;BME280;68982;52.160;6.736;2023-04-15T05:55:16;100902.91;;;4.98;82.18
79534;BME280;68982;52.160;6.736;2023-04-15T05:57:41;100901.91;;;4.99;82.43
79534;BME280;68982;52.160;6.736;2023-04-15T06:00:07;100889.25;;;5.02;81.92
79534;BME280;68982;52.160;6.736;2023-04-15T06:02:33;100910.66;;;5.19;81.90
79534;BME280;68982;52.160;6.736;2023-04-15T06:04:58;100906.75;;;5.14;82.07
79534;BME280;68982;52.160;6.736;2023-04-15T06:07:25;100916.53;;;5.23;81.96
79534;BME280;68982;52.160;6.736;2023-04-15T06:09:50;100915.78;;;5.31;81.51
79534;BME280;68982;52.160;6.736;2023-04-15T06:12:15;100917.28;;;5.33;81.32
79534;BME280;68982;52.160;6.736;2023-04-15T06:14:41;100917.75;;;5.47;80.92
79534;BME280;68982;52.160;6.736;2023-04-15T06:17:06;100937.03;;;5.50;80.96
79534;BME280;68982;52.160;6.736;2023-04-15T06:19:32;100936.88;;;5.70;80.53
79534;BME280;68982;52.160;6.736;2023-04-15T06:21:58;100935.31;;;5.85;80.19
79534;BME280;68982;52.160;6.736;2023-04-15T06:24:24;100928.91;;;5.96;79.89
79534;BME280;68982;52.160;6.736;2023-04-15T06:26:49;100937.19;;;6.11;79.30
79534;BME280;68982;52.160;6.736;2023-04-15T06:29:15;100930.88;;;6.12;78.98
79534;BME280;68982;52.160;6.736;2023-04-15T06:31:40;100938.16;;;6.28;79.10
79534;BME280;68982;52.160;6.736;2023-04-15T06:34:06;100942.47;;;6.20;78.62
79534;BME280;68982;52.160;6.736;2023-04-15T06:36:31;100942.69;;;6.27;79.18
79534;BME280;68982;52.160;6.736;2023-04-15T06:38:56;100944.03;;;6.31;79.21
79534;BME280;68982;52.160;6.736;2023-04-15T06:41:22;100949.22;;;6.33;79.04
79534;BME280;68982;52.160;6.736;2023-04-15T06:43:47;100944.41;;;6.36;78.46
79534;BME280;68982;52.160;6.736;2023-04-15T06:46:13;100953.47;;;6.43;78.34
79534;BME280;68982;52.160;6.736;2023-04-15T06:48:38;100960.06;;;6.49;78.77
79534;BME280;68982;52.160;6.736;2023-04-15T06:51:04;100951.63;;;6.44;79.12
79534;BME280;68982;52.160;6.736;2023-04-15T06:53:29;100950.31;;;6.48;78.71
79534;BME280;68982;52.160;6.736;2023-04-15T06:55:55;100957.72;;;6.54;78.11
79534;BME280;68982;52.160;6.736;2023-04-15T06:58:21;100964.13;;;6.61;78.37
79534;BME280;68982;52.160;6.736;2023-04-15T07:00:46;100950.53;;;6.55;78.09
79534;BME280;68982;52.160;6.736;2023-04-15T07:03:12;100952.72;;;6.59;78.14
79534;BME280;68982;52.160;6.736;2023-04-15T07:05:38;100961.50;;;6.70;77.72
79534;BME280;68982;52.160;6.736;2023-04-15T07:08:04;100964.19;;;6.78;78.28
79534;BME280;68982;52.160;6.736;2023-04-15T07:10:31;100965.59;;;6.90;77.71
79534;BME280;68982;52.160;6.736;2023-04-15T07:12:56;100963.13;;;6.97;77.64
79534;BME280;68982;52.160;6.736;2023-04-15T07:15:22;100965.28;;;6.93;77.74
79534;BME280;68982;52.160;6.736;2023-04-15T07:17:48;100964.81;;;7.06;77.80
79534;BME280;68982;52.160;6.736;2023-04-15T07:20:13;100962.00;;;7.08;77.11
79534;BME280;68982;52.160;6.736;2023-04-15T07:22:38;100960.97;;;7.09;77.36
79534;BME280;68982;52.160;6.736;2023-04-15T07:25:04;100979.81;;;7.25;77.12
79534;BME280;68982;52.160;6.736;2023-04-15T07:27:30;100978.59;;;7.19;77.72
79534;BME280;68982;52.160;6.736;2023-04-15T07:29:56;100990.16;;;7.20;77.71
79534;BME280;68982;52.160;6.736;2023-04-15T07:32:21;100985.72;;;7.37;77.87
79534;BME280;68982;52.160;6.736;2023-04-15T07:34:47;100993.28;;;7.50;77.71
79534;BME280;68982;52.160;6.736;2023-04-15T07:37:13;100994.94;;;7.51;76.88
79534;BME280;68982;52.160;6.736;2023-04-15T07:39:38;100981.03;;;7.47;76.87
79534;BME280;68982;52.160;6.736;2023-04-15T07:42:04;100989.75;;;7.41;77.65
79534;BME280;68982;52.160;6.736;2023-04-15T07:44:29;100983.53;;;7.48;77.13
79534;BME280;68982;52.160;6.736;2023-04-15T07:46:55;100990.59;;;7.58;77.58
79534;BME280;68982;52.160;6.736;2023-04-15T07:49:21;100989.28;;;7.62;76.65
79534;BME280;68982;52.160;6.736;2023-04-15T07:51:47;100998.84;;;7.73;76.38
79534;BME280;68982;52.160;6.736;2023-04-15T07:54:16;101002.38;;;7.98;76.27
79534;BME280;68982;52.160;6.736;2023-04-15T07:56:41;100999.56;;;8.07;75.90
79534;BME280;68982;52.160;6.736;2023-04-15T07:59:08;101010.81;;;8.03;76.00
79534;BME280;68982;52.160;6.736;2023-04-15T08:01:34;101002.88;;;8.18;75.43
79534;BME280;68982;52.160;6.736;2023-04-15T08:03:59;101000.56;;;8.15;75.11
79534;BME280;68982;52.160;6.736;2023-04-15T08:06:25;101008.78;;;8.29;74.07
79534;BME280;68982;52.160;6.736;2023-04-15T08:08:51;101015.16;;;8.28;74.51
79534;BME280;68982;52.160;6.736;2023-04-15T08:11:18;101008.75;;;8.13;74.63
79534;BME280;68982;52.160;6.736;2023-04-15T08:13:43;101019.84;;;8.35;74.82
79534;BME280;68982;52.160;6.736;2023-04-15T08:16:19;101019.84;;;8.26;74.32
79534;BME280;68982;52.160;6.736;2023-04-15T08:18:48;101020.84;;;8.09;74.55
79534;BME280;68982;52.160;6.736;2023-04-15T08:21:15;101024.38;;;8.26;74.29
79534;BME280;68982;52.160;6.736;2023-04-15T08:23:40;101016.50;;;8.33;73.54
79534;BME280;68982;52.160;6.736;2023-04-15T08:26:07;101015.47;;;8.34;74.21
79534;BME280;68982;52.160;6.736;2023-04-15T08:28:37;101031.09;;;8.22;74.16
79534;BME280;68982;52.160;6.736;2023-04-15T08:31:03;101032.94;;;8.38;73.83
79534;BME280;68982;52.160;6.736;2023-04-15T08:33:28;101030.44;;;8.44;73.46
79534;BME280;68982;52.160;6.736;2023-04-15T08:35:53;101040.34;;;8.44;72.79
79534;BME280;68982;52.160;6.736;2023-04-15T08:38:19;101034.28;;;8.25;73.11
79534;BME280;68982;52.160;6.736;2023-04-15T08:40:44;101037.81;;;8.50;72.77
79534;BME280;68982;52.160;6.736;2023-04-15T08:43:12;101034.63;;;8.30;72.83
79534;BME280;68982;52.160;6.736;2023-04-15T08:45:40;101037.00;;;8.42;72.97
79534;BME280;68982;52.160;6.736;2023-04-15T08:48:06;101041.69;;;8.56;72.73
79534;BME280;68982;52.160;6.736;2023-04-15T08:50:33;101044.19;;;8.74;71.86
79534;BME280;68982;52.160;6.736;2023-04-15T08:52:59;101048.81;;;8.97;71.43
79534;BME280;68982;52.160;6.736;2023-04-15T08:55:32;101039.94;;;8.96;71.21
79534;BME280;68982;52.160;6.736;2023-04-15T08:58:00;101042.31;;;9.30;70.31
79534;BME280;68982;52.160;6.736;2023-04-15T09:00:27;101043.06;;;9.47;69.02
79534;BME280;68982;52.160;6.736;2023-04-15T09:02:54;101047.16;;;9.66;69.17
79534;BME280;68982;52.160;6.736;2023-04-15T09:05:20;101053.31;;;9.52;68.84
79534;BME280;68982;52.160;6.736;2023-04-15T09:07:47;101054.19;;;9.44;68.97
79534;BME280;68982;52.160;6.736;2023-04-15T09:10:12;101059.53;;;9.52;69.55
79534;BME280;68982;52.160;6.736;2023-04-15T09:12:38;101065.47;;;9.71;68.88
79534;BME280;68982;52.160;6.736;2023-04-15T09:15:03;101070.69;;;9.72;68.14
79534;BME280;68982;52.160;6.736;2023-04-15T09:17:32;101077.31;;;9.62;68.96
79534;BME280;68982;52.160;6.736;2023-04-15T09:20:14;101073.28;;;9.89;68.03
79534;BME280;68982;52.160;6.736;2023-04-15T09:22:41;101074.84;;;9.83;68.01
79534;BME280;68982;52.160;6.736;2023-04-15T09:25:25;101071.53;;;9.73;68.04
79534;BME280;68982;52.160;6.736;2023-04-15T09:27:55;101082.09;;;9.83;67.64
79534;BME280;68982;52.160;6.736;2023-04-15T09:30:21;101071.09;;;9.61;68.68
79534;BME280;68982;52.160;6.736;2023-04-15T09:32:57;101078.38;;;9.52;68.48
79534;BME280;68982;52.160;6.736;2023-04-15T09:35:24;101087.75;;;9.25;69.23
79534;BME280;68982;52.160;6.736;2023-04-15T09:37:50;101097.47;;;9.34;69.10
79534;BME280;68982;52.160;6.736;2023-04-15T09:40:36;101095.63;;;9.27;69.30
79534;BME280;68982;52.160;6.736;2023-04-15T09:43:03;101092.00;;;9.11;69.35
79534;BME280;68982;52.160;6.736;2023-04-15T09:45:30;101096.88;;;9.08;69.39
79534;BME280;68982;52.160;6.736;2023-04-15T09:47:57;101102.75;;;9.11;69.29
79534;BME280;68982;52.160;6.736;2023-04-15T09:50:26;101108.16;;;9.11;69.16
79534;BME280;68982;52.160;6.736;2023-04-15T09:52:52;101103.75;;;9.19;69.81
79534;BME280;68982;52.160;6.736;2023-04-15T09:55:17;101110.78;;;9.20;69.44
79534;BME280;68982;52.160;6.736;2023-04-15T09:57:45;101118.19;;;9.18;69.69
79534;BME280;68982;52.160;6.736;2023-04-15T10:00:11;101117.72;;;9.14;70.08
79534;BME280;68982;52.160;6.736;2023-04-15T10:02:39;101117.50;;;9.24;69.84
79534;BME280;68982;52.160;6.736;2023-04-15T10:05:08;101114.00;;;9.07;69.87
79534;BME280;68982;52.160;6.736;2023-04-15T10:07:35;101122.91;;;9.16;70.05
79534;BME280;68982;52.160;6.736;2023-04-15T10:10:02;101110.84;;;9.03;70.45
79534;BME280;68982;52.160;6.736;2023-04-15T10:12:29;101120.78;;;9.03;70.64
79534;BME280;68982;52.160;6.736;2023-04-15T10:15:02;101125.78;;;9.06;70.43
79534;BME280;68982;52.160;6.736;2023-04-15T10:17:29;101122.59;;;9.10;70.34
79534;BME280;68982;52.160;6.736;2023-04-15T10:20:00;101124.56;;;9.25;69.54
79534;BME280;68982;52.160;6.736;2023-04-15T10:22:27;101129.25;;;9.31;69.79
79534;BME280;68982;52.160;6.736;2023-04-15T10:24:54;101130.50;;;9.60;69.38
79534;BME280;68982;52.160;6.736;2023-04-15T10:27:20;101120.38;;;9.70;68.63
79534;BME280;68982;52.160;6.736;2023-04-15T10:29:47;101129.28;;;9.70;67.85
79534;BME280;68982;52.160;6.736;2023-04-15T10:32:13;101126.75;;;10.00;67.42
79534;BME280;68982;52.160;6.736;2023-04-15T10:34:40;101122.06;;;10.25;65.95
79534;BME280;68982;52.160;6.736;2023-04-15T10:37:08;101120.63;;;10.37;65.48
79534;BME280;68982;52.160;6.736;2023-04-15T10:39:42;101124.94;;;10.47;65.00
79534;BME280;68982;52.160;6.736;2023-04-15T10:42:16;101127.94;;;10.29;64.78
79534;BME280;68982;52.160;6.736;2023-04-15T10:44:49;101132.72;;;10.19;65.59
79534;BME280;68982;52.160;6.736;2023-04-15T10:47:19;101131.72;;;9.88;67.24
79534;BME280;68982;52.160;6.736;2023-04-15T10:52:13;101134.81;;;9.69;67.89
79534;BME280;68982;52.160;6.736;2023-04-15T10:54:39;101132.63;;;9.72;66.94
79534;BME280;68982;52.160;6.736;2023-04-15T10:59:38;101141.78;;;9.94;65.99
79534;BME280;68982;52.160;6.736;2023-04-15T11:05:12;101147.00;;;9.96;66.57
79534;BME280;68982;52.160;6.736;2023-04-15T11:07:51;101154.81;;;9.83;66.74
79534;BME280;68982;52.160;6.736;2023-04-15T11:12:44;101154.19;;;9.72;67.69
79534;BME280;68982;52.160;6.736;2023-04-15T11:15:27;101148.28;;;9.69;67.18
79534;BME280;68982;52.160;6.736;2023-04-15T11:17:57;101158.44;;;9.59;67.50
79534;BME280;68982;52.160;6.736;2023-04-15T11:20:24;101160.56;;;9.71;67.22
79534;BME280;68982;52.160;6.736;2023-04-15T11:22:53;101160.38;;;9.81;67.47
79534;BME280;68982;52.160;6.736;2023-04-15T11:25:26;101157.41;;;9.99;66.97
79534;BME280;68982;52.160;6.736;2023-04-15T11:27:53;101164.25;;;10.10;66.00
79534;BME280;68982;52.160;6.736;2023-04-15T11:30:24;101156.09;;;10.18;65.47
79534;BME280;68982;52.160;6.736;2023-04-15T11:32:51;101156.66;;;10.13;65.46
79534;BME280;68982;52.160;6.736;2023-04-15T11:35:17;101157.25;;;10.01;65.23
79534;BME280;68982;52.160;6.736;2023-04-15T11:37:47;101166.69;;;9.96;66.10
79534;BME280;68982;52.160;6.736;2023-04-15T11:40:13;101164.59;;;10.07;65.97
79534;BME280;68982;52.160;6.736;2023-04-15T11:42:39;101172.16;;;10.11;65.63
79534;BME280;68982;52.160;6.736;2023-04-15T11:45:09;101172.00;;;10.05;66.11
79534;BME280;68982;52.160;6.736;2023-04-15T11:47:36;101183.41;;;10.15;65.81
79534;BME280;68982;52.160;6.736;2023-04-15T11:50:18;101182.94;;;10.11;65.65
79534;BME280;68982;52.160;6.736;2023-04-15T11:55:19;101178.06;;;10.07;65.81
79534;BME280;68982;52.160;6.736;2023-04-15T11:57:45;101183.00;;;10.26;66.23
79534;BME280;68982;52.160;6.736;2023-04-15T12:00:11;101178.72;;;10.09;66.07
79534;BME280;68982;52.160;6.736;2023-04-15T12:02:37;101175.78;;;9.95;66.53
79534;BME280;68982;52.160;6.736;2023-04-15T12:05:04;101190.13;;;9.88;67.52
79534;BME280;68982;52.160;6.736;2023-04-15T12:07:29;101190.81;;;9.90;67.07
79534;BME280;68982;52.160;6.736;2023-04-15T12:09:55;101192.69;;;9.81;67.00
79534;BME280;68982;52.160;6.736;2023-04-15T12:12:21;101191.84;;;9.81;67.76
79534;BME280;68982;52.160;6.736;2023-04-15T12:14:51;101199.03;;;9.88;67.00
79534;BME280;68982;52.160;6.736;2023-04-15T12:17:16;101204.22;;;9.98;66.44
79534;BME280;68982;52.160;6.736;2023-04-15T12:19:42;101210.72;;;10.12;66.13
79534;BME280;68982;52.160;6.736;2023-04-15T12:22:11;101214.75;;;10.16;66.03
79534;BME280;68982;52.160;6.736;2023-04-15T12:24:37;101213.19;;;10.22;66.01
79534;BME280;68982;52.160;6.736;2023-04-15T12:27:08;101211.34;;;10.30;66.56
79534;BME280;68982;52.160;6.736;2023-04-15T12:29:35;101212.50;;;10.28;65.85
79534;BME280;68982;52.160;6.736;2023-04-15T12:32:04;101228.16;;;10.24;66.16
79534;BME280;68982;52.160;6.736;2023-04-15T12:34:33;101228.03;;;10.17;66.76
79534;BME280;68982;52.160;6.736;2023-04-15T12:37:00;101229.25;;;10.07;67.00
79534;BME280;68982;52.160;6.736;2023-04-15T12:39:30;101238.94;;;9.85;67.70
79534;BME280;68982;52.160;6.736;2023-04-15T12:41:57;101247.75;;;9.70;68.29
79534;BME280;68982;52.160;6.736;2023-04-15T12:44:23;101247.22;;;9.83;68.13
79534;BME280;68982;52.160;6.736;2023-04-15T12:46:50;101254.78;;;9.88;68.39
79534;BME280;68982;52.160;6.736;2023-04-15T12:49:16;101254.28;;;9.84;68.20
79534;BME280;68982;52.160;6.736;2023-04-15T12:51:45;101248.19;;;9.90;68.34
79534;BME280;68982;52.160;6.736;2023-04-15T12:54:11;101256.59;;;9.95;68.28
79534;BME280;68982;52.160;6.736;2023-04-15T12:56:36;101256.03;;;10.08;67.73
79534;BME280;68982;52.160;6.736;2023-04-15T12:59:01;101241.91;;;10.06;67.11
79534;BME280;68982;52.160;6.736;2023-04-15T13:01:27;101250.50;;;10.02;66.96
79534;BME280;68982;52.160;6.736;2023-04-15T13:03:52;101256.13;;;9.84;68.32
79534;BME280;68982;52.160;6.736;2023-04-15T13:06:18;101259.66;;;9.84;68.12
79534;BME280;68982;52.160;6.736;2023-04-15T13:08:43;101258.31;;;9.80;68.24